sensor_id;sensor_type;location;lat;lon;timestamp;temperature;humidity
31521;DHT22;69043;51.224;4.424;2023-07-31T00:00:28;18.50;99.90
31521;DHT22;69043;51.224;4.424;2023-07-31T00:02:54;18.60;99.90
31521;DHT22;69043;51.224;4.424;2023-07-31T00:05:20;18.60;99.90
31521;DHT22;69043;51.224;4.424;2023-07-31T00:07:46;18.50;99.90
31521;DHT22;69043;51.224;4.424;2023-07-31T00:10:12;18.50;99.90
31521;DHT22;69043;51.224;4.424;2023-07-31T00:12:39;18.40;99.90
31521;DHT22;69043;51.224;4.424;2023-07-31T00:15:06;18.40;99.90
31521;DHT22;69043;51.224;4.424;2023-07-31T00:17:32;18.50;99.90
31521;DHT22;69043;51.224;4.424;2023-07-31T00:19:58;18.50;99.90
31521;DHT22;69043;51.224;4.424;2023-07-31T00:22:23;18.60;99.90
31521;DHT22;69043;51.224;4.424;2023-07-31T00:24:49;18.60;99.90
31521;DHT22;69043;51.224;4.424;2023-07-31T00:27:15;18.60;99.90
31521;DHT22;69043;51.224;4.424;2023-07-31T00:29:41;18.60;99.90
31521;DHT22;69043;51.224;4.424;2023-07-31T00:32:07;18.50;99.90
31521;DHT22;69043;51.224;4.424;2023-07-31T00:34:32;18.50;99.90
31521;DHT22;69043;51.224;4.424;2023-07-31T00:36:58;18.50;99.90
31521;DHT22;69043;51.224;4.424;2023-07-31T00:39:24;18.40;99.90
31521;DHT22;69043;51.224;4.424;2023-07-31T00:41:49;18.40;99.90
31521;DHT22;69043;51.224;4.424;2023-07-31T00:44:15;18.30;99.90
31521;DHT22;69043;51.224;4.424;2023-07-31T00:46:41;18.20;99.90
31521;DHT22;69043;51.224;4.424;2023-07-31T00:49:07;18.30;99.90
31521;DHT22;69043;51.224;4.424;2023-07-31T00:51:33;18.30;99.90
31521;DHT22;69043;51.224;4.424;2023-07-31T00:53:59;18.20;99.90
31521;DHT22;69043;51.224;4.424;2023-07-31T00:56:26;18.20;99.90
31521;DHT22;69043;51.224;4.424;2023-07-31T00:58:52;18.30;99.90
31521;DHT22;69043;51.224;4.424;2023-07-31T01:01:18;18.30;99.90
31521;DHT22;69043;51.224;4.424;2023-07-31T01:03:44;18.40;99.90
31521;DHT22;69043;51.224;4.424;2023-07-31T01:06:37;18.40;99.90
31521;DHT22;69043;51.224;4.424;2023-07-31T01:09:28;18.40;99.90
31521;DHT22;69043;51.224;4.424;2023-07-31T01:12:01;18.50;99.90
31521;DHT22;69043;51.224;4.424;2023-07-31T01:14:27;18.50;99.90
31521;DHT22;69043;51.224;4.424;2023-07-31T01:16:53;18.50;99.90
31521;DHT22;69043;51.224;4.424;2023-07-31T01:19:22;18.60;99.90
31521;DHT22;69043;51.224;4.424;2023-07-31T01:27:32;18.40;99.90
31521;DHT22;69043;51.224;4.424;2023-07-31T01:30:05;18.40;99.90
31521;DHT22;69043;51.224;4.424;2023-07-31T01:32:36;18.50;99.90
31521;DHT22;69043;51.224;4.424;2023-07-31T01:35:04;18.60;99.90
31521;DHT22;69043;51.224;4.424;2023-07-31T01:37:29;18.60;99.90
31521;DHT22;69043;51.224;4.424;2023-07-31T01:39:55;18.60;99.90
31521;DHT22;69043;51.224;4.424;2023-07-31T01:42:21;18.50;99.90
31521;DHT22;69043;51.224;4.424;2023-07-31T01:44:47;18.60;99.90
31521;DHT22;69043;51.224;4.424;2023-07-31T01:47:12;18.50;99.90
31521;DHT22;69043;51.224;4.424;2023-07-31T01:49:38;18.50;99.90
31521;DHT22;69043;51.224;4.424;2023-07-31T01:52:04;18.50;99.90
31521;DHT22;69043;51.224;4.424;2023-07-31T01:54:30;18.50;99.90
31521;DHT22;69043;51.224;4.424;2023-07-31T01:56:55;18.50;99.90
31521;DHT22;69043;51.224;4.424;2023-07-31T01:59:21;18.40;99.90
31521;DHT22;69043;51.224;4.424;2023-07-31T02:01:46;18.50;99.90
31521;DHT22;69043;51.224;4.424;2023-07-31T02:04:12;18.60;99.90
31521;DHT22;69043;51.224;4.424;2023-07-31T02:06:38;18.60;99.90
31521;DHT22;69043;51.224;4.424;2023-07-31T02:09:04;18.40;99.90
31521;DHT22;69043;51.224;4.424;2023-07-31T02:11:30;18.30;99.90
31521;DHT22;69043;51.224;4.424;2023-07-31T02:13:55;18.30;99.90
31521;DHT22;69043;51.224;4.424;2023-07-31T02:16:21;18.40;99.90
31521;DHT22;69043;51.224;4.424;2023-07-31T02:18:47;18.20;99.90
31521;DHT22;69043;51.224;4.424;2023-07-31T02:21:12;18.20;99.90
31521;DHT22;69043;51.224;4.424;2023-07-31T02:23:38;18.30;99.90
31521;DHT22;69043;51.224;4.424;2023-07-31T02:26:04;18.40;99.90
31521;DHT22;69043;51.224;4.424;2023-07-31T02:28:30;18.60;99.90
31521;DHT22;69043;51.224;4.424;2023-07-31T02:30:55;18.70;99.90
31521;DHT22;69043;51.224;4.424;2023-07-31T02:33:21;18.70;99.90
31521;DHT22;69043;51.224;4.424;2023-07-31T02:35:47;18.60;99.90
31521;DHT22;69043;51.224;4.424;2023-07-31T02:38:12;18.50;99.90
31521;DHT22;69043;51.224;4.424;2023-07-31T02:40:39;18.50;99.90
31521;DHT22;69043;51.224;4.424;2023-07-31T02:43:07;18.40;99.90
31521;DHT22;69043;51.224;4.424;2023-07-31T02:45:33;18.50;99.90
31521;DHT22;69043;51.224;4.424;2023-07-31T02:47:58;18.60;99.90
31521;DHT22;69043;51.224;4.424;2023-07-31T02:50:24;18.70;99.90
31521;DHT22;69043;51.224;4.424;2023-07-31T02:52:50;18.80;99.90
31521;DHT22;69043;51.224;4.424;2023-07-31T02:55:15;18.80;99.90
31521;DHT22;69043;51.224;4.424;2023-07-31T02:57:41;18.80;99.90
31521;DHT22;69043;51.224;4.424;2023-07-31T03:00:07;18.60;99.90
31521;DHT22;69043;51.224;4.424;2023-07-31T03:02:33;18.70;99.90
31521;DHT22;69043;51.224;4.424;2023-07-31T03:04:58;18.70;99.90
31521;DHT22;69043;51.224;4.424;2023-07-31T03:07:24;18.70;99.90
31521;DHT22;69043;51.224;4.424;2023-07-31T03:09:50;18.50;99.90
31521;DHT22;69043;51.224;4.424;2023-07-31T03:12:16;18.60;99.90
31521;DHT22;69043;51.224;4.424;2023-07-31T03:14:41;18.70;99.90
31521;DHT22;69043;51.224;4.424;2023-07-31T03:17:07;18.80;99.90
31521;DHT22;69043;51.224;4.424;2023-07-31T03:19:33;18.80;99.90
31521;DHT22;69043;51.224;4.424;2023-07-31T03:21:59;18.80;99.90
31521;DHT22;69043;51.224;4.424;2023-07-31T03:24:25;18.70;99.90
31521;DHT22;69043;51.224;4.424;2023-07-31T03:26:51;18.70;99.90
31521;DHT22;69043;51.224;4.424;2023-07-31T03:29:17;18.70;99.90
31521;DHT22;69043;51.224;4.424;2023-07-31T03:31:42;18.50;99.90
31521;DHT22;69043;51.224;4.424;2023-07-31T03:34:08;18.60;99.90
31521;DHT22;69043;51.224;4.424;2023-07-31T03:36:34;18.70;99.90
31521;DHT22;69043;51.224;4.424;2023-07-31T03:38:59;18.60;99.90
31521;DHT22;69043;51.224;4.424;2023-07-31T03:41:25;18.70;99.90
31521;DHT22;69043;51.224;4.424;2023-07-31T03:43:51;18.80;99.90
31521;DHT22;69043;51.224;4.424;2023-07-31T03:46:22;19.00;99.90
31521;DHT22;69043;51.224;4.424;2023-07-31T03:48:48;18.90;99.90
31521;DHT22;69043;51.224;4.424;2023-07-31T03:51:14;18.80;99.90
31521;DHT22;69043;51.224;4.424;2023-07-31T03:53:39;18.80;99.90
31521;DHT22;69043;51.224;4.424;2023-07-31T03:56:05;18.90;99.90
31521;DHT22;69043;51.224;4.424;2023-07-31T03:58:31;18.80;99.90
31521;DHT22;69043;51.224;4.424;2023-07-31T04:00:56;18.70;99.90
31521;DHT22;69043;51.224;4.424;2023-07-31T04:03:22;18.50;99.90
31521;DHT22;69043;51.224;4.424;2023-07-31T04:05:48;18.50;99.90
31521;DHT22;69043;51.224;4.424;2023-07-31T04:08:13;18.40;99.90
31521;DHT22;69043;51.224;4.424;2023-07-31T04:10:39;18.20;99.90
31521;DHT22;69043;51.224;4.424;2023-07-31T04:13:04;18.30;99.90
31521;DHT22;69043;51.224;4.424;2023-07-31T04:15:30;18.30;99.90
31521;DHT22;69043;51.224;4.424;2023-07-31T04:17:56;18.20;99.90
31521;DHT22;69043;51.224;4.424;2023-07-31T04:20:21;18.30;99.90
31521;DHT22;69043;51.224;4.424;2023-07-31T04:22:48;18.20;99.90
31521;DHT22;69043;51.224;4.424;2023-07-31T04:25:13;18.10;99.90
31521;DHT22;69043;51.224;4.424;2023-07-31T04:27:39;18.00;99.90
31521;DHT22;69043;51.224;4.424;2023-07-31T04:30:06;17.90;99.90
31521;DHT22;69043;51.224;4.424;2023-07-31T04:32:32;17.90;99.90
31521;DHT22;69043;51.224;4.424;2023-07-31T04:34:57;17.80;99.90
31521;DHT22;69043;51.224;4.424;2023-07-31T04:37:23;17.80;99.90
31521;DHT22;69043;51.224;4.424;2023-07-31T04:39:48;17.70;99.90
31521;DHT22;69043;51.224;4.424;2023-07-31T04:42:14;17.60;99.90
31521;DHT22;69043;51.224;4.424;2023-07-31T04:44:40;17.80;99.90
31521;DHT22;69043;51.224;4.424;2023-07-31T04:47:05;17.70;99.90
31521;DHT22;69043;51.224;4.424;2023-07-31T04:49:32;17.80;99.90
31521;DHT22;69043;51.224;4.424;2023-07-31T04:51:58;17.80;99.90
31521;DHT22;69043;51.224;4.424;2023-07-31T04:54:24;17.70;99.90
31521;DHT22;69043;51.224;4.424;2023-07-31T04:56:49;17.70;99.90
31521;DHT22;69043;51.224;4.424;2023-07-31T04:59:15;17.70;99.90
31521;DHT22;69043;51.224;4.424;2023-07-31T05:01:40;17.60;99.90
31521;DHT22;69043;51.224;4.424;2023-07-31T05:04:06;17.60;99.90
31521;DHT22;69043;51.224;4.424;2023-07-31T05:06:32;17.60;99.90
31521;DHT22;69043;51.224;4.424;2023-07-31T05:08:58;17.70;99.90
31521;DHT22;69043;51.224;4.424;2023-07-31T05:11:24;17.60;99.90
31521;DHT22;69043;51.224;4.424;2023-07-31T05:13:49;17.60;99.90
31521;DHT22;69043;51.224;4.424;2023-07-31T05:16:15;17.50;99.90
31521;DHT22;69043;51.224;4.424;2023-07-31T05:18:40;17.50;99.90
31521;DHT22;69043;51.224;4.424;2023-07-31T05:21:06;17.60;99.90
31521;DHT22;69043;51.224;4.424;2023-07-31T05:23:32;17.60;99.90
31521;DHT22;69043;51.224;4.424;2023-07-31T05:26:05;17.70;99.90
31521;DHT22;69043;51.224;4.424;2023-07-31T05:28:33;17.80;99.90
31521;DHT22;69043;51.224;4.424;2023-07-31T05:31:03;17.90;99.90
31521;DHT22;69043;51.224;4.424;2023-07-31T05:33:29;17.80;99.90
31521;DHT22;69043;51.224;4.424;2023-07-31T05:35:55;17.80;99.90
31521;DHT22;69043;51.224;4.424;2023-07-31T05:38:21;17.80;99.90
31521;DHT22;69043;51.224;4.424;2023-07-31T05:40:47;17.80;99.90
31521;DHT22;69043;51.224;4.424;2023-07-31T05:43:12;17.80;99.90
31521;DHT22;69043;51.224;4.424;2023-07-31T05:45:38;17.80;99.90
31521;DHT22;69043;51.224;4.424;2023-07-31T05:48:05;17.70;99.90
31521;DHT22;69043;51.224;4.424;2023-07-31T05:50:31;17.80;99.90
31521;DHT22;69043;51.224;4.424;2023-07-31T05:52:57;17.80;99.90
31521;DHT22;69043;51.224;4.424;2023-07-31T05:55:24;17.80;99.90
31521;DHT22;69043;51.224;4.424;2023-07-31T05:57:52;17.80;99.90
31521;DHT22;69043;51.224;4.424;2023-07-31T06:00:18;17.70;99.90
31521;DHT22;69043;51.224;4.424;2023-07-31T06:02:44;17.70;99.90
31521;DHT22;69043;51.224;4.424;2023-07-31T06:05:09;17.80;99.90
31521;DHT22;69043;51.224;4.424;2023-07-31T06:07:35;17.90;99.90
31521;DHT22;69043;51.224;4.424;2023-07-31T06:10:01;17.90;99.90
31521;DHT22;69043;51.224;4.424;2023-07-31T06:12:31;17.80;99.90
31521;DHT22;69043;51.224;4.424;2023-07-31T06:14:57;17.80;99.90
31521;DHT22;69043;51.224;4.424;2023-07-31T06:17:22;17.90;99.90
31521;DHT22;69043;51.224;4.424;2023-07-31T06:19:49;17.90;99.90
31521;DHT22;69043;51.224;4.424;2023-07-31T06:22:15;17.80;99.90
31521;DHT22;69043;51.224;4.424;2023-07-31T06:24:41;17.80;99.90
31521;DHT22;69043;51.224;4.424;2023-07-31T06:27:06;17.90;99.90
31521;DHT22;69043;51.224;4.424;2023-07-31T06:29:32;17.90;99.90
31521;DHT22;69043;51.224;4.424;2023-07-31T06:31:58;18.00;99.90
31521;DHT22;69043;51.224;4.424;2023-07-31T06:34:24;18.10;99.90
31521;DHT22;69043;51.224;4.424;2023-07-31T06:36:50;18.10;99.90
31521;DHT22;69043;51.224;4.424;2023-07-31T06:39:15;18.10;99.90
31521;DHT22;69043;51.224;4.424;2023-07-31T06:41:42;18.00;99.90
31521;DHT22;69043;51.224;4.424;2023-07-31T06:44:08;18.20;99.90
31521;DHT22;69043;51.224;4.424;2023-07-31T06:46:34;18.10;99.90
31521;DHT22;69043;51.224;4.424;2023-07-31T06:48:59;18.00;99.90
31521;DHT22;69043;51.224;4.424;2023-07-31T06:51:25;17.90;99.90
31521;DHT22;69043;51.224;4.424;2023-07-31T06:53:51;17.90;99.90
31521;DHT22;69043;51.224;4.424;2023-07-31T06:56:16;18.00;99.90
31521;DHT22;69043;51.224;4.424;2023-07-31T06:58:42;18.10;99.90
31521;DHT22;69043;51.224;4.424;2023-07-31T07:01:08;18.20;99.90
31521;DHT22;69043;51.224;4.424;2023-07-31T07:03:34;18.20;99.90
31521;DHT22;69043;51.224;4.424;2023-07-31T07:06:00;18.20;99.90
31521;DHT22;69043;51.224;4.424;2023-07-31T07:08:26;18.20;99.90
31521;DHT22;69043;51.224;4.424;2023-07-31T07:10:52;18.10;99.90
31521;DHT22;69043;51.224;4.424;2023-07-31T07:13:17;18.20;99.90
31521;DHT22;69043;51.224;4.424;2023-07-31T07:15:53;18.30;99.90
31521;DHT22;69043;51.224;4.424;2023-07-31T07:18:18;18.30;99.90
31521;DHT22;69043;51.224;4.424;2023-07-31T07:20:51;18.40;99.90
31521;DHT22;69043;51.224;4.424;2023-07-31T07:23:17;18.40;99.90
31521;DHT22;69043;51.224;4.424;2023-07-31T07:25:43;18.40;99.90
31521;DHT22;69043;51.224;4.424;2023-07-31T07:28:09;18.50;99.90
31521;DHT22;69043;51.224;4.424;2023-07-31T07:30:35;18.40;99.90
31521;DHT22;69043;51.224;4.424;2023-07-31T07:33:01;18.60;99.90
31521;DHT22;69043;51.224;4.424;2023-07-31T07:35:27;18.50;99.90
31521;DHT22;69043;51.224;4.424;2023-07-31T07:37:52;18.50;99.90
31521;DHT22;69043;51.224;4.424;2023-07-31T07:40:19;18.60;99.90
31521;DHT22;69043;51.224;4.424;2023-07-31T07:42:45;18.60;99.90
31521;DHT22;69043;51.224;4.424;2023-07-31T07:45:10;18.80;99.90
31521;DHT22;69043;51.224;4.424;2023-07-31T07:47:37;18.80;99.90
31521;DHT22;69043;51.224;4.424;2023-07-31T07:50:03;18.90;99.90
31521;DHT22;69043;51.224;4.424;2023-07-31T07:52:29;18.90;99.90
31521;DHT22;69043;51.224;4.424;2023-07-31T07:54:55;18.80;99.90
31521;DHT22;69043;51.224;4.424;2023-07-31T07:57:20;18.90;99.90
31521;DHT22;69043;51.224;4.424;2023-07-31T07:59:46;19.20;99.90
31521;DHT22;69043;51.224;4.424;2023-07-31T08:02:12;19.30;99.90
31521;DHT22;69043;51.224;4.424;2023-07-31T08:04:37;19.40;99.90
31521;DHT22;69043;51.224;4.424;2023-07-31T08:07:03;19.60;99.90
31521;DHT22;69043;51.224;4.424;2023-07-31T08:09:29;19.70;99.90
31521;DHT22;69043;51.224;4.424;2023-07-31T08:11:55;19.60;99.90
31521;DHT22;69043;51.224;4.424;2023-07-31T08:14:23;19.80;99.90
31521;DHT22;69043;51.224;4.424;2023-07-31T08:16:48;19.90;99.90
31521;DHT22;69043;51.224;4.424;2023-07-31T08:19:14;20.10;99.90
31521;DHT22;69043;51.224;4.424;2023-07-31T08:21:40;19.90;99.90
31521;DHT22;69043;51.224;4.424;2023-07-31T08:24:05;20.00;99.90
31521;DHT22;69043;51.224;4.424;2023-07-31T08:26:31;20.20;99.90
31521;DHT22;69043;51.224;4.424;2023-07-31T08:28:56;20.20;99.90
31521;DHT22;69043;51.224;4.424;2023-07-31T08:31:23;20.20;99.90
31521;DHT22;69043;51.224;4.424;2023-07-31T08:33:48;20.30;99.90
31521;DHT22;69043;51.224;4.424;2023-07-31T08:36:14;20.40;99.90
31521;DHT22;69043;51.224;4.424;2023-07-31T08:38:39;20.40;99.90
31521;DHT22;69043;51.224;4.424;2023-07-31T08:41:05;20.40;99.90
31521;DHT22;69043;51.224;4.424;2023-07-31T08:43:31;20.50;99.90
31521;DHT22;69043;51.224;4.424;2023-07-31T08:45:58;20.40;99.90
31521;DHT22;69043;51.224;4.424;2023-07-31T08:48:24;20.40;99.90
31521;DHT22;69043;51.224;4.424;2023-07-31T08:50:51;20.20;99.90
31521;DHT22;69043;51.224;4.424;2023-07-31T08:53:18;20.30;99.90
31521;DHT22;69043;51.224;4.424;2023-07-31T08:55:44;20.70;99.90
31521;DHT22;69043;51.224;4.424;2023-07-31T08:58:12;20.90;99.90
31521;DHT22;69043;51.224;4.424;2023-07-31T09:00:40;20.90;99.90
31521;DHT22;69043;51.224;4.424;2023-07-31T09:03:13;20.90;99.90
31521;DHT22;69043;51.224;4.424;2023-07-31T09:05:42;20.70;99.90
31521;DHT22;69043;51.224;4.424;2023-07-31T09:08:09;20.80;99.90
31521;DHT22;69043;51.224;4.424;2023-07-31T09:10:43;20.90;99.90
31521;DHT22;69043;51.224;4.424;2023-07-31T09:13:09;21.30;99.90
31521;DHT22;69043;51.224;4.424;2023-07-31T09:15:36;21.50;99.90
31521;DHT22;69043;51.224;4.424;2023-07-31T09:18:04;21.50;99.90
31521;DHT22;69043;51.224;4.424;2023-07-31T09:20:31;21.40;99.90
31521;DHT22;69043;51.224;4.424;2023-07-31T09:23:08;21.10;99.90
31521;DHT22;69043;51.224;4.424;2023-07-31T09:25:34;21.10;99.90
31521;DHT22;69043;51.224;4.424;2023-07-31T09:28:04;21.00;99.90
31521;DHT22;69043;51.224;4.424;2023-07-31T09:30:30;21.10;99.90
31521;DHT22;69043;51.224;4.424;2023-07-31T09:33:06;21.00;99.90
31521;DHT22;69043;51.224;4.424;2023-07-31T09:35:34;20.80;99.90
31521;DHT22;69043;51.224;4.424;2023-07-31T09:38:10;21.10;99.90
31521;DHT22;69043;51.224;4.424;2023-07-31T09:40:38;21.10;99.90
31521;DHT22;69043;51.224;4.424;2023-07-31T09:43:05;20.80;99.90
31521;DHT22;69043;51.224;4.424;2023-07-31T09:45:35;20.90;99.90
31521;DHT22;69043;51.224;4.424;2023-07-31T09:48:02;20.90;99.90
31521;DHT22;69043;51.224;4.424;2023-07-31T09:50:29;20.80;99.90
31521;DHT22;69043;51.224;4.424;2023-07-31T09:52:55;21.10;99.90
31521;DHT22;69043;51.224;4.424;2023-07-31T09:55:21;21.30;99.90
31521;DHT22;69043;51.224;4.424;2023-07-31T09:57:48;21.30;99.90
31521;DHT22;69043;51.224;4.424;2023-07-31T10:00:18;21.10;99.90
31521;DHT22;69043;51.224;4.424;2023-07-31T10:02:48;21.10;99.90
31521;DHT22;69043;51.224;4.424;2023-07-31T10:05:15;21.10;99.90
31521;DHT22;69043;51.224;4.424;2023-07-31T10:07:58;21.00;99.90
31521;DHT22;69043;51.224;4.424;2023-07-31T10:10:25;21.10;99.90
31521;DHT22;69043;51.224;4.424;2023-07-31T10:12:52;21.00;99.90
31521;DHT22;69043;51.224;4.424;2023-07-31T10:15:18;21.10;99.90
31521;DHT22;69043;51.224;4.424;2023-07-31T10:17:47;21.00;99.90
31521;DHT22;69043;51.224;4.424;2023-07-31T10:20:14;20.90;99.90
31521;DHT22;69043;51.224;4.424;2023-07-31T10:22:45;20.70;99.90
31521;DHT22;69043;51.224;4.424;2023-07-31T10:25:12;20.70;99.90
31521;DHT22;69043;51.224;4.424;2023-07-31T10:27:39;20.60;99.90
31521;DHT22;69043;51.224;4.424;2023-07-31T10:30:07;20.60;99.90
31521;DHT22;69043;51.224;4.424;2023-07-31T10:32:33;20.50;99.90
31521;DHT22;69043;51.224;4.424;2023-07-31T10:35:01;20.60;99.90
31521;DHT22;69043;51.224;4.424;2023-07-31T10:37:30;20.20;99.90
31521;DHT22;69043;51.224;4.424;2023-07-31T10:40:06;20.20;99.90
31521;DHT22;69043;51.224;4.424;2023-07-31T10:42:55;20.40;99.90
31521;DHT22;69043;51.224;4.424;2023-07-31T10:45:38;20.30;99.90
31521;DHT22;69043;51.224;4.424;2023-07-31T10:48:22;20.20;99.90
31521;DHT22;69043;51.224;4.424;2023-07-31T10:50:50;20.30;99.90
31521;DHT22;69043;51.224;4.424;2023-07-31T10:53:29;20.40;99.90
31521;DHT22;69043;51.224;4.424;2023-07-31T10:56:02;20.20;99.90
31521;DHT22;69043;51.224;4.424;2023-07-31T10:58:28;20.30;99.90
31521;DHT22;69043;51.224;4.424;2023-07-31T11:00:59;20.30;99.90
31521;DHT22;69043;51.224;4.424;2023-07-31T11:03:26;20.40;99.90
31521;DHT22;69043;51.224;4.424;2023-07-31T11:06:00;20.50;99.90
31521;DHT22;69043;51.224;4.424;2023-07-31T11:08:32;20.80;99.90
31521;DHT22;69043;51.224;4.424;2023-07-31T11:13:34;21.60;99.90
31521;DHT22;69043;51.224;4.424;2023-07-31T11:16:04;21.90;99.90
31521;DHT22;69043;51.224;4.424;2023-07-31T11:18:30;21.70;99.90
31521;DHT22;69043;51.224;4.424;2023-07-31T11:20:56;21.50;99.90
31521;DHT22;69043;51.224;4.424;2023-07-31T11:23:22;21.20;99.90
31521;DHT22;69043;51.224;4.424;2023-07-31T11:25:48;21.20;99.90
31521;DHT22;69043;51.224;4.424;2023-07-31T11:28:16;20.90;99.90
31521;DHT22;69043;51.224;4.424;2023-07-31T11:30:43;20.80;99.90
31521;DHT22;69043;51.224;4.424;2023-07-31T11:33:11;20.70;99.90
31521;DHT22;69043;51.224;4.424;2023-07-31T11:38:23;20.90;99.90
31521;DHT22;69043;51.224;4.424;2023-07-31T11:40:49;21.20;99.90
31521;DHT22;69043;51.224;4.424;2023-07-31T11:43:15;21.50;99.90
31521;DHT22;69043;51.224;4.424;2023-07-31T11:45:52;21.50;99.90
31521;DHT22;69043;51.224;4.424;2023-07-31T11:48:34;21.50;99.90
31521;DHT22;69043;51.224;4.424;2023-07-31T11:51:06;21.60;99.90
31521;DHT22;69043;51.224;4.424;2023-07-31T11:56:01;21.60;99.90
31521;DHT22;69043;51.224;4.424;2023-07-31T11:58:31;21.30;99.90
31521;DHT22;69043;51.224;4.424;2023-07-31T12:00:58;21.50;99.90
31521;DHT22;69043;51.224;4.424;2023-07-31T12:03:25;21.50;99.90
31521;DHT22;69043;51.224;4.424;2023-07-31T12:05:52;21.50;99.90
31521;DHT22;69043;51.224;4.424;2023-07-31T12:08:21;21.70;99.90
31521;DHT22;69043;51.224;4.424;2023-07-31T12:10:47;21.50;99.90
31521;DHT22;69043;51.224;4.424;2023-07-31T12:13:26;21.90;99.90
31521;DHT22;69043;51.224;4.424;2023-07-31T12:15:56;22.10;99.90
31521;DHT22;69043;51.224;4.424;2023-07-31T12:18:23;22.10;99.90
31521;DHT22;69043;51.224;4.424;2023-07-31T12:20:57;22.20;99.90
31521;DHT22;69043;51.224;4.424;2023-07-31T12:23:33;22.20;99.90
31521;DHT22;69043;51.224;4.424;2023-07-31T12:28:44;22.40;99.90
31521;DHT22;69043;51.224;4.424;2023-07-31T12:31:17;22.50;99.90
31521;DHT22;69043;51.224;4.424;2023-07-31T12:33:44;22.50;99.90
31521;DHT22;69043;51.224;4.424;2023-07-31T12:36:11;22.60;99.90
31521;DHT22;69043;51.224;4.424;2023-07-31T12:38:38;22.70;99.90
31521;DHT22;69043;51.224;4.424;2023-07-31T12:41:04;22.30;99.90
31521;DHT22;69043;51.224;4.424;2023-07-31T12:43:30;22.30;99.90
31521;DHT22;69043;51.224;4.424;2023-07-31T12:45:56;22.20;99.90
31521;DHT22;69043;51.224;4.424;2023-07-31T12:48:22;22.10;99.90
31521;DHT22;69043;51.224;4.424;2023-07-31T12:50:48;21.70;99.90
31521;DHT22;69043;51.224;4.424;2023-07-31T12:53:14;21.40;99.90
31521;DHT22;69043;51.224;4.424;2023-07-31T12:55:40;21.40;99.90
31521;DHT22;69043;51.224;4.424;2023-07-31T12:58:05;21.50;99.90
31521;DHT22;69043;51.224;4.424;2023-07-31T13:00:31;21.60;99.90
31521;DHT22;69043;51.224;4.424;2023-07-31T13:02:57;21.60;99.90
31521;DHT22;69043;51.224;4.424;2023-07-31T13:05:22;21.50;99.90
31521;DHT22;69043;51.224;4.424;2023-07-31T13:07:48;21.60;99.90
31521;DHT22;69043;51.224;4.424;2023-07-31T13:10:14;21.70;99.90
31521;DHT22;69043;51.224;4.424;2023-07-31T13:12:40;21.90;99.90
31521;DHT22;69043;51.224;4.424;2023-07-31T13:15:06;21.90;99.90
31521;DHT22;69043;51.224;4.424;2023-07-31T13:17:32;21.90;99.90
31521;DHT22;69043;51.224;4.424;2023-07-31T13:19:59;21.80;99.90
31521;DHT22;69043;51.224;4.424;2023-07-31T13:22:25;21.40;99.90
31521;DHT22;69043;51.224;4.424;2023-07-31T13:24:50;21.30;99.90
31521;DHT22;69043;51.224;4.424;2023-07-31T13:27:16;21.30;99.90
31521;DHT22;69043;51.224;4.424;2023-07-31T13:29:44;21.20;99.90
31521;DHT22;69043;51.224;4.424;2023-07-31T13:32:10;21.00;99.90
31521;DHT22;69043;51.224;4.424;2023-07-31T13:34:36;20.80;99.90
31521;DHT22;69043;51.224;4.424;2023-07-31T13:37:02;20.70;99.90
31521;DHT22;69043;51.224;4.424;2023-07-31T13:39:27;20.30;99.90
31521;DHT22;69043;51.224;4.424;2023-07-31T13:41:53;20.40;99.90
31521;DHT22;69043;51.224;4.424;2023-07-31T13:44:19;20.40;99.90
31521;DHT22;69043;51.224;4.424;2023-07-31T13:46:44;20.30;99.90
31521;DHT22;69043;51.224;4.424;2023-07-31T13:49:10;20.20;99.90
31521;DHT22;69043;51.224;4.424;2023-07-31T13:51:36;20.20;99.90
31521;DHT22;69043;51.224;4.424;2023-07-31T13:54:03;20.10;99.90
31521;DHT22;69043;51.224;4.424;2023-07-31T13:56:28;20.20;99.90
31521;DHT22;69043;51.224;4.424;2023-07-31T13:58:54;20.00;99.90
31521;DHT22;69043;51.224;4.424;2023-07-31T14:01:20;19.90;99.90
31521;DHT22;69043;51.224;4.424;2023-07-31T14:03:45;19.80;99.90
31521;DHT22;69043;51.224;4.424;2023-07-31T14:06:11;19.80;99.90
31521;DHT22;69043;51.224;4.424;2023-07-31T14:08:37;19.80;99.90
31521;DHT22;69043;51.224;4.424;2023-07-31T14:11:02;19.70;99.90
31521;DHT22;69043;51.224;4.424;2023-07-31T14:13:28;19.60;99.90
31521;DHT22;69043;51.224;4.424;2023-07-31T14:15:54;19.60;99.90
31521;DHT22;69043;51.224;4.424;2023-07-31T14:18:19;19.50;99.90
31521;DHT22;69043;51.224;4.424;2023-07-31T14:20:45;19.50;99.90
31521;DHT22;69043;51.224;4.424;2023-07-31T14:23:11;19.50;99.90
31521;DHT22;69043;51.224;4.424;2023-07-31T14:25:36;19.40;99.90
31521;DHT22;69043;51.224;4.424;2023-07-31T14:28:02;19.40;99.90
31521;DHT22;69043;51.224;4.424;2023-07-31T14:30:28;19.40;99.90
31521;DHT22;69043;51.224;4.424;2023-07-31T14:32:53;19.30;99.90
31521;DHT22;69043;51.224;4.424;2023-07-31T14:35:19;19.10;99.90
31521;DHT22;69043;51.224;4.424;2023-07-31T14:37:45;19.10;99.90
31521;DHT22;69043;51.224;4.424;2023-07-31T14:40:12;19.10;99.90
31521;DHT22;69043;51.224;4.424;2023-07-31T14:42:39;19.00;99.90
31521;DHT22;69043;51.224;4.424;2023-07-31T14:45:06;19.00;99.90
31521;DHT22;69043;51.224;4.424;2023-07-31T14:47:32;19.10;99.90
31521;DHT22;69043;51.224;4.424;2023-07-31T14:49:58;19.10;99.90
31521;DHT22;69043;51.224;4.424;2023-07-31T14:52:24;19.20;99.90
31521;DHT22;69043;51.224;4.424;2023-07-31T14:54:50;19.10;99.90
31521;DHT22;69043;51.224;4.424;2023-07-31T14:57:16;19.10;99.90
31521;DHT22;69043;51.224;4.424;2023-07-31T14:59:42;19.20;99.90
31521;DHT22;69043;51.224;4.424;2023-07-31T15:02:09;19.10;99.90
31521;DHT22;69043;51.224;4.424;2023-07-31T15:04:35;18.80;99.90
31521;DHT22;69043;51.224;4.424;2023-07-31T15:07:01;18.80;99.90
31521;DHT22;69043;51.224;4.424;2023-07-31T15:09:26;19.00;99.90
31521;DHT22;69043;51.224;4.424;2023-07-31T15:11:52;19.10;99.90
31521;DHT22;69043;51.224;4.424;2023-07-31T15:14:18;19.00;99.90
31521;DHT22;69043;51.224;4.424;2023-07-31T15:16:44;18.90;99.90
31521;DHT22;69043;51.224;4.424;2023-07-31T15:19:09;18.90;99.90
31521;DHT22;69043;51.224;4.424;2023-07-31T15:21:38;18.90;99.90
31521;DHT22;69043;51.224;4.424;2023-07-31T15:24:04;19.00;99.90
31521;DHT22;69043;51.224;4.424;2023-07-31T15:26:29;18.90;99.90
31521;DHT22;69043;51.224;4.424;2023-07-31T15:29:00;18.90;99.90
31521;DHT22;69043;51.224;4.424;2023-07-31T15:31:27;19.00;99.90
31521;DHT22;69043;51.224;4.424;2023-07-31T15:33:52;19.20;99.90
31521;DHT22;69043;51.224;4.424;2023-07-31T15:36:18;19.30;99.90
31521;DHT22;69043;51.224;4.424;2023-07-31T15:38:44;19.30;99.90
31521;DHT22;69043;51.224;4.424;2023-07-31T15:41:09;19.20;99.90
31521;DHT22;69043;51.224;4.424;2023-07-31T15:43:35;19.10;99.90